createdAt,value
2019-04-11T00:00:53.197Z,3.70
2019-04-11T00:03:19.831Z,3.72
2019-04-11T00:05:50.727Z,3.62
2019-04-11T00:08:17.735Z,3.63
2019-04-11T00:10:45.044Z,3.70
2019-04-11T00:13:19.767Z,3.59
2019-04-11T00:15:40.784Z,3.71
2019-04-11T00:18:08.290Z,3.45
2019-04-11T00:20:36.259Z,3.58
2019-04-11T00:23:03.886Z,3.43
2019-04-11T00:25:31.601Z,3.56
2019-04-11T00:27:59.387Z,3.66
2019-04-11T00:30:26.311Z,3.61
2019-04-11T00:32:53.861Z,3.65
2019-04-11T00:35:21.687Z,3.66
2019-04-11T00:37:49.583Z,3.55
2019-04-11T00:40:17.486Z,3.60
2019-04-11T00:42:45.179Z,3.64
2019-04-11T00:45:13.687Z,3.48
2019-04-11T00:47:41.550Z,3.42
2019-04-11T00:50:09.048Z,3.41
2019-04-11T00:52:37.010Z,3.52
2019-04-11T00:55:05.067Z,3.57
2019-04-11T00:57:32.747Z,3.60
2019-04-11T00:59:59.642Z,3.41
2019-04-11T01:02:26.513Z,3.23
2019-04-11T01:04:53.124Z,3.33
2019-04-11T01:07:19.772Z,3.28
2019-04-11T01:09:46.986Z,3.40
2019-04-11T01:12:13.674Z,3.29
2019-04-11T01:14:40.637Z,3.22
2019-04-11T01:17:07.825Z,3.24
2019-04-11T01:19:35.157Z,3.12
2019-04-11T01:22:02.127Z,3.27
2019-04-11T01:24:28.825Z,3.14
2019-04-11T01:26:55.618Z,3.22
2019-04-11T01:29:23.050Z,3.16
2019-04-11T01:31:51.817Z,3.24
2019-04-11T01:34:18.379Z,3.07
2019-04-11T01:36:45.321Z,3.11
2019-04-11T01:39:14.498Z,2.76
2019-04-11T01:41:41.259Z,2.78
2019-04-11T01:44:08.927Z,2.85
2019-04-11T01:46:36.142Z,2.92
2019-04-11T01:49:06.015Z,2.64
2019-04-11T01:51:33.882Z,2.66
2019-04-11T01:54:01.560Z,2.84
2019-04-11T01:56:29.664Z,2.65
2019-04-11T01:58:57.269Z,2.87
2019-04-11T02:01:25.958Z,2.86
2019-04-11T02:03:55.319Z,2.75
2019-04-11T02:06:23.650Z,2.84
2019-04-11T02:08:51.370Z,2.86
2019-04-11T02:11:18.662Z,2.87
2019-04-11T02:13:45.247Z,2.75
2019-04-11T02:16:12.639Z,2.55
2019-04-11T02:18:39.869Z,2.76
2019-04-11T02:21:06.628Z,2.64
2019-04-11T02:23:35.420Z,2.73
2019-04-11T02:26:04.830Z,2.76
2019-04-11T02:28:33.288Z,2.75
2019-04-11T02:31:02.545Z,2.71
2019-04-11T02:33:30.530Z,2.74
2019-04-11T02:35:58.117Z,2.44
2019-04-11T02:38:24.888Z,2.48
2019-04-11T02:40:52.566Z,2.62
2019-04-11T02:43:20.423Z,2.64
2019-04-11T02:45:58.260Z,2.48
2019-04-11T02:48:18.208Z,2.63
2019-04-11T02:50:45.879Z,2.72
2019-04-11T02:53:14.807Z,2.61
2019-04-11T02:55:43.846Z,2.59
2019-04-11T02:58:12.482Z,2.66
2019-04-11T03:00:40.242Z,2.55
2019-04-11T03:03:08.476Z,2.70
2019-04-11T03:05:37.558Z,2.71
2019-04-11T03:08:10.883Z,2.50
2019-04-11T03:10:37.573Z,2.59
2019-04-11T03:13:04.959Z,2.63
2019-04-11T03:15:53.619Z,2.51
2019-04-11T03:18:06.056Z,2.50
2019-04-11T03:20:38.428Z,2.65
2019-04-11T03:23:04.502Z,2.47
2019-04-11T03:25:28.862Z,2.34
2019-04-11T03:27:59.013Z,2.26
2019-04-11T03:30:42.211Z,2.34
2019-04-11T03:38:12.392Z,2.41
2019-04-11T03:40:43.827Z,2.35
2019-04-11T03:43:06.108Z,2.48
2019-04-11T03:45:43.813Z,2.42
2019-04-11T03:48:06.240Z,2.11
2019-04-11T03:50:23.339Z,2.18
2019-04-11T03:52:49.350Z,2.21
2019-04-11T03:55:19.157Z,2.28
2019-04-11T03:57:47.060Z,2.36
2019-04-11T04:00:15.438Z,2.26
2019-04-11T04:02:44.407Z,2.33
2019-04-11T04:05:13.190Z,1.94
2019-04-11T04:07:41.245Z,2.04
2019-04-11T04:10:11.532Z,2.05
2019-04-11T04:12:40.245Z,2.13
2019-04-11T04:15:13.037Z,2.15
2019-04-11T04:17:41.399Z,2.35
2019-04-11T04:20:12.935Z,2.32
2019-04-11T04:22:45.616Z,2.20
2019-04-11T04:25:12.421Z,2.27
2019-04-11T04:27:41.017Z,1.94
2019-04-11T04:30:10.640Z,1.99
2019-04-11T04:32:38.646Z,2.32
2019-04-11T04:35:10.705Z,2.29
2019-04-11T04:37:36.481Z,2.28
2019-04-11T04:40:24.097Z,2.23
2019-04-11T04:42:40.363Z,2.10
2019-04-11T04:45:07.388Z,1.99
2019-04-11T04:47:42.687Z,2.13
2019-04-11T04:50:06.395Z,2.35
2019-04-11T04:52:34.462Z,2.42
2019-04-11T04:55:06.015Z,2.44
2019-04-11T04:57:33.886Z,2.51
2019-04-11T05:00:05.048Z,2.54
2019-04-11T05:02:32.689Z,2.58
2019-04-11T05:05:01.350Z,2.56
2019-04-11T05:07:34.150Z,2.36
2019-04-11T05:09:58.701Z,2.55
2019-04-11T05:12:26.138Z,2.79
2019-04-11T05:14:54.155Z,2.99
2019-04-11T05:17:23.150Z,2.99
2019-04-11T05:19:50.897Z,3.13
2019-04-11T05:22:18.947Z,3.04
2019-04-11T05:24:45.956Z,2.87
2019-04-11T05:27:12.644Z,3.36
2019-04-11T05:29:39.713Z,3.41
2019-04-11T05:32:07.257Z,3.42
2019-04-11T05:34:35.200Z,3.36
2019-04-11T05:37:02.508Z,3.58
2019-04-11T05:39:29.227Z,3.75
2019-04-11T05:41:56.726Z,3.88
2019-04-11T05:44:23.587Z,4.01
2019-04-11T05:46:57.193Z,3.83
2019-04-11T05:49:22.813Z,3.97
2019-04-11T05:51:54.004Z,3.60
2019-04-11T05:54:20.376Z,3.75
2019-04-11T05:56:53.885Z,4.12
2019-04-11T05:59:20.390Z,4.09
2019-04-11T06:01:50.784Z,3.74
2019-04-11T06:04:23.323Z,3.97
2019-04-11T06:06:50.641Z,3.73
2019-04-11T06:09:19.319Z,3.88
2019-04-11T06:11:52.382Z,3.62
2019-04-11T06:14:19.433Z,3.92
2019-04-11T06:16:53.725Z,3.88
2019-04-11T06:19:18.662Z,3.95
2019-04-11T06:21:48.394Z,4.25
2019-04-11T06:24:18.198Z,4.30
2019-04-11T06:26:47.098Z,4.61
2019-04-11T06:29:22.926Z,4.46
2019-04-11T06:31:47.427Z,5.02
2019-04-11T06:34:17.564Z,5.03
2019-04-11T06:36:48.241Z,5.12
2019-04-11T06:39:18.925Z,5.09
2019-04-11T06:41:48.640Z,4.79
2019-04-11T06:44:17.432Z,4.81
2019-04-11T06:46:53.875Z,4.64
2019-04-11T06:49:16.418Z,4.83
2019-04-11T06:51:46.270Z,4.98
2019-04-11T06:54:15.099Z,5.30
2019-04-11T06:56:43.813Z,5.63
2019-04-11T06:59:12.309Z,5.74
2019-04-11T07:01:40.550Z,5.80
2019-04-11T07:04:09.364Z,6.08
2019-04-11T07:06:38.115Z,6.45
2019-04-11T07:09:07.804Z,6.42
2019-04-11T07:11:36.438Z,6.59
2019-04-11T07:14:06.103Z,6.53
2019-04-11T07:16:34.541Z,6.99
2019-04-11T07:19:03.084Z,6.70
2019-04-11T07:21:31.696Z,6.89
2019-04-11T07:24:00.275Z,6.90
2019-04-11T07:26:29.447Z,7.03
2019-04-11T07:28:59.288Z,7.23
2019-04-11T07:31:27.979Z,7.21
2019-04-11T07:33:56.624Z,7.55
2019-04-11T07:36:25.293Z,7.30
2019-04-11T07:38:54.881Z,7.45
2019-04-11T07:41:23.928Z,7.17
2019-04-11T07:43:50.751Z,6.96
2019-04-11T07:46:19.215Z,6.84
2019-04-11T07:48:46.887Z,7.00
2019-04-11T07:51:15.698Z,7.09
2019-04-11T07:53:44.362Z,7.13
2019-04-11T07:56:13.213Z,6.85
2019-04-11T07:58:42.995Z,7.07
2019-04-11T08:01:12.624Z,6.73
2019-04-11T08:03:41.493Z,6.83
2019-04-11T08:06:11.119Z,6.89
2019-04-11T08:08:38.990Z,6.70
2019-04-11T08:11:07.757Z,6.36
2019-04-11T08:13:36.896Z,6.64
2019-04-11T08:16:04.926Z,6.89
2019-04-11T08:18:34.912Z,6.99
2019-04-11T08:21:03.882Z,6.73
2019-04-11T08:23:31.711Z,6.99
2019-04-11T08:26:00.284Z,6.63
2019-04-11T08:28:27.074Z,6.81
2019-04-11T08:30:57.250Z,7.15
2019-04-11T08:33:26.742Z,7.19
2019-04-11T08:35:57.138Z,7.25
2019-04-11T08:38:26.684Z,7.26
2019-04-11T08:40:55.669Z,7.51
2019-04-11T08:43:24.637Z,8.01
2019-04-11T08:45:51.610Z,8.07
2019-04-11T08:48:19.172Z,7.77
2019-04-11T08:50:48.666Z,7.48
2019-04-11T08:53:18.476Z,7.33
2019-04-11T08:55:53.704Z,7.08
2019-04-11T08:58:18.340Z,7.45
2019-04-11T09:00:48.878Z,7.37
2019-04-11T09:03:19.707Z,7.49
2019-04-11T09:05:49.294Z,7.40
2019-04-11T09:08:18.378Z,7.43
2019-04-11T09:10:49.150Z,7.60
2019-04-11T09:13:18.079Z,7.54
2019-04-11T09:15:46.871Z,7.50
2019-04-11T09:18:14.929Z,7.67
2019-04-11T09:20:45.485Z,8.06
2019-04-11T09:23:13.430Z,8.17
2019-04-11T09:25:43.432Z,8.28
2019-04-11T09:28:13.368Z,8.49
2019-04-11T09:30:43.130Z,8.34
2019-04-11T09:33:12.905Z,8.33
2019-04-11T09:35:41.872Z,8.55
2019-04-11T09:38:10.540Z,8.12
2019-04-11T09:40:39.610Z,8.19
2019-04-11T09:43:09.380Z,8.18
2019-04-11T09:45:38.656Z,8.27
2019-04-11T09:48:14.075Z,8.58
2019-04-11T09:50:38.042Z,8.47
2019-04-11T09:53:05.738Z,8.45
2019-04-11T09:55:34.833Z,8.56
2019-04-11T09:58:02.866Z,9.28
2019-04-11T10:00:32.035Z,9.67
2019-04-11T10:03:00.859Z,9.23
2019-04-11T10:05:30.039Z,9.67
2019-04-11T10:07:59.992Z,9.83
2019-04-11T10:10:29.162Z,9.44
2019-04-11T10:12:57.879Z,9.29
2019-04-11T10:15:27.214Z,8.87
2019-04-11T10:17:56.939Z,8.56
2019-04-11T10:20:24.538Z,8.92
2019-04-11T10:22:54.425Z,8.89
2019-04-11T10:25:23.400Z,8.27
2019-04-11T10:27:53.106Z,8.06
2019-04-11T10:30:23.775Z,8.25
2019-04-11T10:32:52.651Z,8.14
2019-04-11T10:35:22.033Z,8.29
2019-04-11T10:37:50.472Z,8.56
2019-04-11T10:40:21.273Z,8.92
2019-04-11T10:42:49.499Z,8.30
2019-04-11T10:45:18.490Z,8.81
2019-04-11T10:47:45.509Z,9.14
2019-04-11T10:50:15.493Z,9.40
2019-04-11T10:52:46.654Z,9.75
2019-04-11T10:55:15.600Z,9.93
2019-04-11T10:57:44.698Z,10.01
2019-04-11T11:00:18.938Z,9.45
2019-04-11T11:02:47.382Z,9.24
2019-04-11T11:05:19.122Z,9.27
2019-04-11T11:07:47.506Z,8.95
2019-04-11T11:10:16.010Z,9.43
2019-04-11T11:12:45.482Z,9.30
2019-04-11T11:15:15.544Z,9.06
2019-04-11T11:18:05.589Z,9.65
2019-04-11T11:20:24.805Z,9.93
2019-04-11T11:22:48.607Z,9.78
2019-04-11T11:25:19.268Z,9.55
2019-04-11T11:27:48.028Z,9.67
2019-04-11T11:30:16.977Z,9.48
2019-04-11T11:32:45.280Z,9.68
2019-04-11T11:35:15.126Z,10.03
2019-04-11T11:37:45.266Z,10.49
2019-04-11T11:40:16.565Z,10.84
2019-04-11T11:42:44.840Z,10.85
2019-04-11T11:45:13.678Z,10.55
2019-04-11T11:47:43.195Z,9.89
2019-04-11T11:50:18.218Z,9.32
2019-04-11T11:52:43.988Z,9.49
2019-04-11T11:55:12.830Z,9.49
2019-04-11T11:57:41.302Z,9.82
2019-04-11T12:00:12.669Z,9.99
2019-04-11T12:02:42.366Z,9.92
2019-04-11T12:05:15.833Z,10.24
2019-04-11T12:07:42.985Z,10.27
2019-04-11T12:10:13.238Z,10.64
2019-04-11T12:12:42.249Z,10.74
2019-04-11T12:15:14.181Z,9.87
2019-04-11T12:17:42.764Z,9.44
2019-04-11T12:20:15.702Z,9.30
2019-04-11T12:22:42.296Z,9.67
2019-04-11T12:25:12.185Z,9.48
2019-04-11T12:27:41.535Z,10.02
2019-04-11T12:30:10.933Z,9.37
2019-04-11T12:32:40.880Z,9.64
2019-04-11T12:35:11.621Z,9.60
2019-04-11T12:37:41.336Z,9.77
2019-04-11T12:40:10.419Z,9.76
2019-04-11T12:42:39.942Z,9.68
2019-04-11T12:45:09.539Z,9.70
2019-04-11T12:47:38.572Z,9.91
2019-04-11T12:50:09.316Z,10.25
2019-04-11T12:52:37.779Z,10.33
2019-04-11T12:55:08.261Z,9.83
2019-04-11T12:57:37.334Z,9.76
2019-04-11T13:00:09.003Z,9.74
2019-04-11T13:02:37.880Z,9.88
2019-04-11T13:05:07.555Z,9.87
2019-04-11T13:07:36.494Z,10.01
2019-04-11T13:10:10.482Z,9.91
2019-04-11T13:12:39.098Z,9.23
2019-04-11T13:15:08.108Z,9.48
2019-04-11T13:17:37.125Z,9.51
2019-04-11T13:20:07.310Z,9.90
2019-04-11T13:22:34.160Z,9.99
2019-04-11T13:25:02.822Z,10.40
2019-04-11T13:27:31.552Z,10.94
2019-04-11T13:30:00.049Z,10.74
2019-04-11T13:32:28.511Z,10.61
2019-04-11T13:34:57.241Z,10.86
2019-04-11T13:37:25.866Z,10.32
2019-04-11T13:39:54.351Z,9.80
2019-04-11T13:42:22.875Z,9.57
2019-04-11T13:44:49.473Z,9.36
2019-04-11T13:47:16.136Z,8.78
2019-04-11T13:49:45.359Z,8.79
2019-04-11T13:52:13.669Z,9.28
2019-04-11T13:54:42.404Z,9.80
2019-04-11T13:57:10.995Z,9.73
2019-04-11T13:59:39.596Z,10.33
2019-04-11T14:02:08.416Z,10.65
2019-04-11T14:04:39.004Z,10.83
2019-04-11T14:07:06.945Z,10.66
2019-04-11T14:09:35.650Z,11.17
2019-04-11T14:12:07.155Z,11.71
2019-04-11T14:14:35.815Z,11.38
2019-04-11T14:17:04.805Z,10.58
2019-04-11T14:19:33.354Z,10.69
2019-04-11T14:22:00.366Z,10.61
2019-04-11T14:24:28.979Z,10.62
2019-04-11T14:26:57.660Z,10.72
2019-04-11T14:29:26.441Z,10.36
2019-04-11T14:31:56.231Z,10.52
2019-04-11T14:34:24.821Z,9.90
2019-04-11T14:36:54.517Z,9.26
2019-04-11T14:39:23.288Z,9.12
2019-04-11T14:41:51.817Z,8.89
2019-04-11T14:44:19.261Z,8.60
2019-04-11T14:46:47.869Z,8.52
2019-04-11T14:49:14.604Z,9.22
2019-04-11T14:51:44.002Z,9.90
2019-04-11T14:54:17.277Z,10.04
2019-04-11T14:56:42.684Z,10.04
2019-04-11T14:59:13.190Z,10.36
2019-04-11T15:01:43.943Z,10.86
2019-04-11T15:04:13.600Z,10.52
2019-04-11T15:06:44.806Z,10.29
2019-04-11T15:09:14.748Z,10.80
2019-04-11T15:11:44.256Z,10.04
2019-04-11T15:14:12.830Z,10.75
2019-04-11T15:16:41.405Z,10.13
2019-04-11T15:19:08.155Z,9.96
2019-04-11T15:21:37.248Z,9.37
2019-04-11T15:24:07.228Z,9.31
2019-04-11T15:26:36.639Z,9.85
2019-04-11T15:29:05.522Z,9.64
2019-04-11T15:31:39.513Z,9.08
2019-04-11T15:34:05.052Z,9.78
2019-04-11T15:36:31.607Z,10.09
2019-04-11T15:39:00.137Z,9.82
2019-04-11T15:41:28.621Z,9.96
2019-04-11T15:43:57.188Z,9.68
2019-04-11T15:46:28.702Z,9.76
2019-04-11T15:48:57.415Z,9.66
2019-04-11T15:51:25.933Z,9.42
2019-04-11T15:53:54.406Z,9.69
2019-04-11T15:56:22.901Z,9.61
2019-04-11T15:58:51.398Z,9.55
2019-04-11T16:01:19.978Z,9.16
2019-04-11T16:03:48.503Z,9.03
2019-04-11T16:06:16.980Z,9.09
2019-04-11T16:08:43.904Z,8.54
2019-04-11T16:11:13.006Z,8.03
2019-04-11T16:13:41.699Z,8.06
2019-04-11T16:16:11.918Z,7.92
2019-04-11T16:18:39.566Z,8.05
2019-04-11T16:21:18.175Z,7.81
2019-04-11T16:23:38.480Z,8.01
2019-04-11T16:26:07.119Z,8.02
2019-04-11T16:28:37.937Z,7.55
2019-04-11T16:31:04.598Z,7.78
2019-04-11T16:33:33.206Z,7.62
2019-04-11T16:36:01.969Z,7.47
2019-04-11T16:38:30.657Z,7.60
2019-04-11T16:40:59.179Z,7.58
2019-04-11T16:43:26.057Z,7.45
2019-04-11T16:45:55.328Z,7.46
2019-04-11T16:48:25.533Z,7.33
2019-04-11T16:50:50.965Z,7.24
2019-04-11T16:53:17.784Z,7.38
2019-04-11T16:55:44.556Z,7.35
2019-04-11T16:58:15.125Z,7.18
2019-04-11T17:00:40.141Z,7.26
2019-04-11T17:03:06.996Z,7.23
2019-04-11T17:05:34.096Z,7.20
2019-04-11T17:08:03.279Z,7.06
2019-04-11T17:10:31.879Z,7.04
2019-04-11T17:12:58.571Z,7.01
2019-04-11T17:15:25.197Z,6.94
2019-04-11T17:17:53.592Z,7.14
2019-04-11T17:20:20.249Z,7.11
2019-04-11T17:22:48.845Z,6.97
2019-04-11T17:25:17.610Z,6.77
2019-04-11T17:27:45.949Z,6.69
2019-04-11T17:30:12.737Z,6.74
2019-04-11T17:33:17.308Z,6.80
2019-04-11T17:35:44.069Z,6.77
2019-04-11T17:38:10.770Z,6.52
2019-04-11T17:40:39.586Z,6.26
2019-04-11T17:43:06.421Z,6.25
2019-04-11T17:45:33.588Z,6.41
2019-04-11T17:48:00.360Z,6.43
2019-04-11T17:50:27.146Z,6.10
2019-04-11T17:52:54.765Z,6.00
2019-04-11T17:55:23.996Z,5.84
2019-04-11T17:57:50.943Z,5.99
2019-04-11T18:00:22.131Z,5.98
2019-04-11T18:02:49.083Z,5.79
2019-04-11T18:05:17.127Z,5.81
2019-04-11T18:07:46.856Z,5.77
2019-04-11T18:10:13.261Z,5.65
2019-04-11T18:12:43.401Z,5.63
2019-04-11T18:15:10.396Z,5.58
2019-04-11T18:17:37.102Z,5.56
2019-04-11T18:20:07.725Z,5.37
2019-04-11T18:22:34.894Z,5.28
2019-04-11T18:25:04.551Z,5.15
2019-04-11T18:27:31.239Z,5.12
2019-04-11T18:29:58.057Z,5.08
2019-04-11T18:32:25.183Z,4.93
2019-04-11T18:34:52.781Z,4.78
2019-04-11T18:37:20.873Z,4.68
2019-04-11T18:39:47.486Z,4.55
2019-04-11T18:42:16.933Z,4.49
2019-04-11T18:44:43.731Z,4.34
2019-04-11T18:47:10.660Z,4.24
2019-04-11T18:49:37.380Z,4.21
2019-04-11T18:52:04.218Z,4.36
2019-04-11T18:54:30.916Z,4.22
2019-04-11T18:56:57.617Z,4.25
2019-04-11T18:59:24.485Z,4.06
2019-04-11T19:01:51.230Z,4.14
2019-04-11T19:04:18.064Z,4.22
2019-04-11T19:06:44.923Z,4.15
2019-04-11T19:09:16.441Z,4.02
2019-04-11T19:11:43.852Z,3.98
2019-04-11T19:14:15.781Z,4.01
2019-04-11T19:16:46.106Z,3.92
2019-04-11T19:19:18.023Z,3.85
2019-04-11T19:21:42.332Z,3.78
2019-04-11T19:24:12.930Z,3.84
2019-04-11T19:26:39.672Z,3.74
2019-04-11T19:29:06.397Z,3.68
2019-04-11T19:31:33.181Z,3.68
2019-04-11T19:34:04.462Z,3.57
2019-04-11T19:36:28.750Z,3.65
2019-04-11T19:38:55.418Z,3.59
2019-04-11T19:41:22.345Z,3.55
2019-04-11T19:43:49.932Z,3.43
2019-04-11T19:46:18.003Z,3.28
2019-04-11T19:48:45.389Z,3.12
2019-04-11T19:51:12.017Z,2.88
2019-04-11T19:53:38.700Z,3.08
2019-04-11T19:56:07.172Z,3.09
2019-04-11T19:58:33.977Z,2.90
2019-04-11T20:01:00.668Z,2.89
2019-04-11T20:03:27.275Z,2.73
2019-04-11T20:05:53.855Z,2.76
2019-04-11T20:08:20.542Z,2.70
2019-04-11T20:10:47.136Z,2.76
2019-04-11T20:13:16.068Z,2.57
2019-04-11T20:15:43.176Z,2.48
2019-04-11T20:18:10.226Z,2.48
2019-04-11T20:20:37.600Z,2.40
2019-04-11T20:23:04.932Z,2.25
2019-04-11T20:25:31.638Z,2.29
2019-04-11T20:27:58.317Z,2.04
2019-04-11T20:30:26.578Z,2.21
2019-04-11T20:32:53.261Z,2.03
2019-04-11T20:35:28.759Z,2.03
2019-04-11T20:37:48.956Z,2.03
2019-04-11T20:40:18.786Z,1.98
2019-04-11T20:42:44.084Z,1.94
2019-04-11T20:45:16.813Z,1.90
2019-04-11T20:47:52.998Z,1.85
2019-04-11T20:50:27.068Z,1.81
2019-04-11T20:52:54.307Z,1.71
2019-04-11T20:55:21.221Z,1.73
2019-04-11T20:57:47.930Z,1.72
2019-04-11T21:00:16.005Z,1.72
2019-04-11T21:02:42.568Z,1.69
2019-04-11T21:05:09.454Z,1.67
2019-04-11T21:07:38.908Z,1.69
2019-04-11T21:10:05.890Z,1.56
2019-04-11T21:12:37.052Z,1.63
2019-04-11T21:15:06.372Z,1.44
2019-04-11T21:17:33.024Z,1.61
2019-04-11T21:19:59.603Z,1.62
2019-04-11T21:22:26.221Z,1.44
2019-04-11T21:24:52.804Z,1.55
2019-04-11T21:27:20.628Z,1.61
2019-04-11T21:29:47.261Z,1.51
2019-04-11T21:32:14.135Z,1.58
2019-04-11T21:34:40.884Z,1.54
2019-04-11T21:37:07.642Z,1.47
2019-04-11T21:39:34.302Z,1.63
2019-04-11T21:42:00.953Z,1.67
2019-04-11T21:44:27.853Z,1.63
2019-04-11T21:46:54.559Z,1.62
2019-04-11T21:49:21.310Z,1.64
2019-04-11T21:51:49.321Z,1.65
2019-04-11T21:54:16.104Z,1.62
2019-04-11T21:56:42.703Z,1.66
2019-04-11T21:59:09.340Z,1.68
2019-04-11T22:01:40.736Z,1.63
2019-04-11T22:04:08.142Z,1.64
2019-04-11T22:06:34.976Z,1.52
2019-04-11T22:09:04.840Z,1.46
2019-04-11T22:11:32.202Z,1.35
2019-04-11T22:13:58.871Z,1.40
2019-04-11T22:16:25.675Z,1.28
2019-04-11T22:18:52.309Z,1.20
2019-04-11T22:21:18.889Z,1.26
2019-04-11T22:23:48.946Z,1.27
2019-04-11T22:26:14.886Z,1.17
2019-04-11T22:28:41.645Z,1.09
2019-04-11T22:31:08.499Z,1.09
2019-04-11T22:33:37.094Z,0.97
2019-04-11T22:36:03.754Z,1.10
2019-04-11T22:38:31.073Z,1.11
2019-04-11T22:41:01.764Z,1.17
2019-04-11T22:43:27.186Z,1.01
2019-04-11T22:45:53.944Z,1.11
2019-04-11T22:48:20.606Z,0.95
2019-04-11T22:50:47.236Z,0.92
2019-04-11T22:53:16.876Z,0.91
2019-04-11T22:55:43.483Z,0.90
2019-04-11T22:58:13.968Z,0.78
2019-04-11T23:00:38.812Z,0.62
2019-04-11T23:03:07.354Z,0.72
2019-04-11T23:05:35.198Z,0.75
2019-04-11T23:08:02.897Z,0.71
2019-04-11T23:10:30.024Z,0.73
2019-04-11T23:12:56.613Z,0.73
2019-04-11T23:15:23.329Z,0.91
2019-04-11T23:17:50.138Z,0.86
2019-04-11T23:20:16.805Z,0.99
2019-04-11T23:22:43.502Z,1.12
2019-04-11T23:25:10.229Z,0.94
2019-04-11T23:27:38.725Z,0.96
2019-04-11T23:30:07.001Z,0.96
2019-04-11T23:32:33.856Z,0.85
2019-04-11T23:35:00.458Z,0.96
2019-04-11T23:37:27.009Z,1.00
2019-04-11T23:39:53.638Z,0.99
2019-04-11T23:42:20.294Z,0.97
2019-04-11T23:44:47.903Z,0.92
2019-04-11T23:47:15.726Z,1.09
2019-04-11T23:49:42.365Z,1.06
2019-04-11T23:52:08.982Z,1.17
2019-04-11T23:54:35.822Z,1.28
2019-04-11T23:57:03.786Z,1.22
2019-04-11T23:59:32.137Z,1.27
